Smith Hill, Texas
Current Conditions -  °F | °C
As of 2:53 PM on Saturday 22 Nov 2014 (Local Time) from KTXK Reporting Station
Clear Clear  
Wind Chill: 70°   Ceiling: Unl
Heat Index: 70°   Visibility: 10mi
Dew Point: 52°   Wind: 15mph
Humidity: 53%   Direction: 160°SSE
Pressure: 29.95"   Gusts: 22mph
Location:  33.474°N, 94.2882°W
Report Text: KTXK 222053Z 16013G19KT 10SM CLR 21/11 A2995 RMK AO2 SLP138 T02110111 56035
Loading
Personal Weather Stations






























Interactive Weather Map New forecast layout! Learn more

10-Day Weather Forecast

Advertisements
Track Severe Weather on mobile